Aviation Digital Data Service (ADDS)

Output produced by METARs form (0917 UTC 30 July 2016)
found at http://aviationweather.gov/adds/metars/
 
KSBY 300835Z 3009/3106 13004KT P6SM SKC 
     TEMPO 3009/3012 3SM BR 
     FM301300 12005KT P6SM SCT030 SCT120 
     FM301800 14008KT P6SM BKN050 
     FM310000 12005KT P6SM SCT050 BKN100